createdAt,value
2023-02-18T00:05:17.002Z,7.30
2023-02-18T00:11:10.833Z,7.30
2023-02-18T00:17:05.720Z,7.40
2023-02-18T00:22:59.204Z,7.30
2023-02-18T00:28:53.450Z,7.30
2023-02-18T00:34:48.329Z,7.40
2023-02-18T00:40:42.324Z,7.30
2023-02-18T00:46:36.524Z,7.30
2023-02-18T00:52:31.413Z,7.30
2023-02-18T00:58:27.792Z,7.20
2023-02-18T01:04:21.289Z,7.20
2023-02-18T01:10:18.931Z,7.20
2023-02-18T01:16:12.910Z,7.20
2023-02-18T01:22:07.171Z,7.20
2023-02-18T01:28:03.525Z,7.20
2023-02-18T01:33:57.000Z,7.20
2023-02-18T01:39:50.427Z,7.20
2023-02-18T01:46:10.148Z,7.10
2023-02-18T01:52:08.126Z,7.00
2023-02-18T01:58:01.980Z,6.90
2023-02-18T02:03:57.595Z,6.80
2023-02-18T02:09:53.790Z,6.90
2023-02-18T02:15:52.076Z,6.80
2023-02-18T02:22:18.937Z,6.80
2023-02-18T02:28:41.933Z,6.70
2023-02-18T02:34:54.543Z,6.70
2023-02-18T02:40:52.856Z,6.60
2023-02-18T02:46:47.960Z,6.60
2023-02-18T02:52:46.543Z,6.60
2023-02-18T02:58:39.960Z,6.60
2023-02-18T03:05:03.298Z,6.60
2023-02-18T03:11:04.520Z,6.60
2023-02-18T03:17:03.801Z,6.60
2023-02-18T03:22:59.359Z,6.60
2023-02-18T03:28:56.698Z,6.60
2023-02-18T03:34:54.850Z,6.60
2023-02-18T03:40:48.614Z,6.70
2023-02-18T03:46:45.831Z,6.60
2023-02-18T03:52:39.826Z,6.70
2023-02-18T03:58:32.882Z,6.80
2023-02-18T04:04:28.025Z,6.80
2023-02-18T04:10:23.119Z,6.80
2023-02-18T04:16:16.634Z,6.80
2023-02-18T04:22:11.495Z,6.90
2023-02-18T04:28:05.236Z,6.90
2023-02-18T04:33:58.753Z,6.90
2023-02-18T04:39:53.386Z,6.80
2023-02-18T04:45:46.908Z,6.80
2023-02-18T04:51:41.797Z,6.70
2023-02-18T04:57:36.249Z,6.80
2023-02-18T05:03:31.337Z,6.70
2023-02-18T05:09:24.651Z,6.60
2023-02-18T05:15:19.195Z,6.60
2023-02-18T05:21:13.396Z,6.60
2023-02-18T05:27:06.818Z,6.60
2023-02-18T05:33:01.612Z,6.60
2023-02-18T05:38:54.574Z,6.60
2023-02-18T05:44:48.872Z,6.60
2023-02-18T05:50:43.484Z,6.60
2023-02-18T05:56:37.074Z,6.50
2023-02-18T06:02:30.485Z,6.50
2023-02-18T06:08:25.327Z,6.50
2023-02-18T06:14:18.483Z,6.40
2023-02-18T06:20:12.576Z,6.40
2023-02-18T06:26:07.888Z,6.30
2023-02-18T06:32:01.352Z,6.30
2023-02-18T06:37:54.566Z,6.30
2023-02-18T06:43:50.437Z,6.30
2023-02-18T06:49:43.996Z,6.20
2023-02-18T06:55:37.537Z,6.20
2023-02-18T07:01:32.141Z,6.20
2023-02-18T07:07:25.661Z,6.40
2023-02-18T07:13:19.135Z,6.40
2023-02-18T07:19:14.947Z,6.50
2023-02-18T07:25:09.007Z,6.50
2023-02-18T07:31:02.281Z,6.60
2023-02-18T07:36:57.086Z,6.50
2023-02-18T07:42:50.407Z,6.60
2023-02-18T07:48:45.408Z,6.80
2023-02-18T07:54:40.251Z,6.90
2023-02-18T08:00:33.232Z,6.90
2023-02-18T08:06:30.613Z,7.00
2023-02-18T08:12:25.672Z,7.00
2023-02-18T08:21:37.033Z,7.10
2023-02-18T08:27:30.487Z,7.10
2023-02-18T08:37:05.969Z,7.00
2023-02-18T08:42:59.149Z,7.00
2023-02-18T08:48:52.729Z,7.00
2023-02-18T08:54:47.782Z,7.10
2023-02-18T09:00:43.378Z,7.10
2023-02-18T09:06:39.164Z,7.10
2023-02-18T09:12:34.146Z,7.10
2023-02-18T09:18:28.001Z,7.10
2023-02-18T09:24:21.768Z,7.10
2023-02-18T09:30:16.595Z,7.20
2023-02-18T09:36:10.066Z,7.20
2023-02-18T09:42:05.443Z,7.20
2023-02-18T09:48:00.414Z,7.30
2023-02-18T09:53:54.170Z,7.20
2023-02-18T09:59:49.774Z,7.20
2023-02-18T10:05:56.846Z,7.20
2023-02-18T10:11:53.154Z,7.10
2023-02-18T10:17:47.928Z,7.10
2023-02-18T10:23:48.309Z,7.30
2023-02-18T10:29:42.091Z,7.30
2023-02-18T10:35:41.423Z,7.20
2023-02-18T10:41:44.347Z,7.30
2023-02-18T10:47:41.776Z,7.40
2023-02-18T10:53:37.665Z,7.20
2023-02-18T10:59:35.236Z,7.30
2023-02-18T11:05:29.644Z,7.40
2023-02-18T11:11:26.457Z,7.50
2023-02-18T11:17:29.385Z,7.60
2023-02-18T11:23:23.660Z,7.70
2023-02-18T11:29:22.196Z,7.70
2023-02-18T11:35:21.460Z,7.70
2023-02-18T11:41:18.287Z,7.90
2023-02-18T11:47:25.248Z,7.90
2023-02-18T11:53:31.562Z,7.90
2023-02-18T11:59:25.403Z,8.00
2023-02-18T12:05:23.313Z,8.20
2023-02-18T12:11:26.688Z,8.60
2023-02-18T12:17:38.599Z,9.00
2023-02-18T12:23:39.858Z,9.10
2023-02-18T12:29:47.143Z,9.10
2023-02-18T12:35:58.322Z,9.10
2023-02-18T12:42:03.496Z,9.10
2023-02-18T12:48:11.338Z,9.10
2023-02-18T12:54:22.368Z,9.10
2023-02-18T13:00:42.163Z,9.00
2023-02-18T13:07:16.391Z,9.00
2023-02-18T13:13:14.067Z,9.00
2023-02-18T13:19:19.264Z,8.90
2023-02-18T13:25:15.202Z,8.90
2023-02-18T13:31:20.739Z,8.80
2023-02-18T13:37:22.457Z,8.80
2023-02-18T13:43:29.786Z,8.80
2023-02-18T13:49:25.296Z,8.70
2023-02-18T13:55:22.632Z,8.80
2023-02-18T14:01:30.385Z,8.70
2023-02-18T14:07:40.273Z,8.70
2023-02-18T14:13:44.303Z,8.70
2023-02-18T14:19:38.781Z,8.60
2023-02-18T14:25:39.685Z,8.50
2023-02-18T14:31:55.724Z,8.00
2023-02-18T14:38:13.155Z,7.50
2023-02-18T14:44:21.474Z,7.30
2023-02-18T14:50:19.576Z,7.00
2023-02-18T14:56:17.040Z,7.00
2023-02-18T15:02:20.895Z,7.00
2023-02-18T15:08:18.992Z,7.00
2023-02-18T15:14:20.065Z,6.70
2023-02-18T15:20:15.413Z,6.70
2023-02-18T15:26:15.038Z,6.80
2023-02-18T15:32:18.125Z,6.80
2023-02-18T15:38:17.059Z,6.70
2023-02-18T15:44:10.398Z,6.50
2023-02-18T15:50:05.989Z,6.60
2023-02-18T15:55:59.685Z,6.60
2023-02-18T16:01:54.614Z,6.70
2023-02-18T16:07:53.798Z,6.80
2023-02-18T16:13:49.362Z,6.80
2023-02-18T16:20:03.201Z,6.90
2023-02-18T16:26:28.225Z,6.80
2023-02-18T16:32:23.294Z,6.90
2023-02-18T16:38:18.850Z,6.80
2023-02-18T16:44:15.447Z,6.70
2023-02-18T16:50:15.886Z,6.60
2023-02-18T16:56:18.675Z,6.70
2023-02-18T17:02:20.262Z,6.70
2023-02-18T17:08:21.244Z,6.70
2023-02-18T17:14:18.324Z,6.70
2023-02-18T17:20:15.002Z,6.70
2023-02-18T17:26:14.155Z,6.50
2023-02-18T17:32:08.605Z,6.50
2023-02-18T17:38:03.553Z,6.40
2023-02-18T17:43:56.570Z,6.40
2023-02-18T17:49:49.638Z,6.50
2023-02-18T17:55:45.809Z,6.50
2023-02-18T18:01:38.973Z,6.50
2023-02-18T18:07:32.434Z,6.50
2023-02-18T18:13:29.407Z,6.50
2023-02-18T18:19:22.684Z,6.50
2023-02-18T18:25:20.919Z,6.50
2023-02-18T18:31:18.631Z,6.40
2023-02-18T18:37:13.002Z,6.50
2023-02-18T18:43:06.678Z,6.40
2023-02-18T18:49:01.148Z,6.30
2023-02-18T18:54:54.229Z,6.30
2023-02-18T19:00:50.874Z,6.40
2023-02-18T19:06:45.286Z,6.40
2023-02-18T19:12:38.312Z,6.30
2023-02-18T19:18:33.958Z,6.40
2023-02-18T19:24:28.882Z,6.30
2023-02-18T19:30:23.888Z,6.30
2023-02-18T19:36:17.158Z,6.30
2023-02-18T19:42:12.400Z,6.30
2023-02-18T19:48:05.477Z,6.10
2023-02-18T19:53:59.196Z,6.20
2023-02-18T19:59:53.647Z,6.10
2023-02-18T20:05:46.692Z,6.10
2023-02-18T20:11:39.711Z,6.00
2023-02-18T20:17:34.801Z,6.00
2023-02-18T20:23:28.358Z,5.90
2023-02-18T20:29:22.004Z,5.80
2023-02-18T20:35:17.009Z,5.90
2023-02-18T20:41:13.922Z,5.80
2023-02-18T20:47:07.939Z,5.90
2023-02-18T20:53:02.799Z,5.80
2023-02-18T20:58:56.279Z,5.60
2023-02-18T21:04:49.332Z,5.50
2023-02-18T21:10:43.758Z,5.60
2023-02-18T21:16:39.911Z,5.60
2023-02-18T21:22:32.939Z,5.60
2023-02-18T21:28:27.569Z,5.60
2023-02-18T21:34:21.637Z,5.60
2023-02-18T21:40:14.581Z,5.60
2023-02-18T21:46:15.958Z,5.60
2023-02-18T21:52:09.503Z,5.70
2023-02-18T21:58:02.683Z,5.60
2023-02-18T22:03:57.355Z,5.50
2023-02-18T22:09:51.813Z,5.40
2023-02-18T22:15:45.248Z,5.40
2023-02-18T22:21:40.776Z,5.40
2023-02-18T22:27:34.157Z,5.40
2023-02-18T22:33:28.023Z,5.40
2023-02-18T22:39:22.485Z,5.50
2023-02-18T22:45:15.616Z,5.20
2023-02-18T22:51:12.472Z,5.40
2023-02-18T22:57:07.287Z,5.40
2023-02-18T23:03:00.742Z,5.50
2023-02-18T23:08:55.375Z,5.50
2023-02-18T23:14:49.718Z,5.50
2023-02-18T23:21:05.688Z,5.50
2023-02-18T23:26:59.136Z,5.50
2023-02-18T23:32:53.868Z,5.40
2023-02-18T23:38:49.303Z,5.50
2023-02-18T23:44:42.782Z,5.60
2023-02-18T23:50:37.599Z,5.60
2023-02-18T23:56:31.377Z,5.60
